createdAt,value
2023-01-28T00:01:14.320Z,77.48
2023-01-28T00:03:45.830Z,77.32
2023-01-28T00:06:15.645Z,78.72
2023-01-28T00:08:43.992Z,76.10
2023-01-28T00:11:15.858Z,76.80
2023-01-28T00:13:44.561Z,76.61
2023-01-28T00:16:12.847Z,77.46
2023-01-28T00:18:40.938Z,76.69
2023-01-28T00:21:11.835Z,78.68
2023-01-28T00:23:42.350Z,77.56
2023-01-28T00:26:14.405Z,76.30
2023-01-28T00:28:44.359Z,78.99
2023-01-28T00:31:16.963Z,77.09
2023-01-28T00:33:45.246Z,78.09
2023-01-28T00:36:14.601Z,78.11
2023-01-28T00:38:43.153Z,78.50
2023-01-28T00:41:14.295Z,77.63
2023-01-28T00:43:45.637Z,77.76
2023-01-28T00:46:14.844Z,76.37
2023-01-28T00:48:44.574Z,76.39
2023-01-28T00:51:16.335Z,72.91
2023-01-28T00:53:45.057Z,77.26
2023-01-28T00:56:15.874Z,75.62
2023-01-28T00:58:44.158Z,75.06
2023-01-28T01:01:15.628Z,75.26
2023-01-28T01:03:44.567Z,75.94
2023-01-28T01:06:15.799Z,76.97
2023-01-28T01:08:52.511Z,78.22
2023-01-28T01:11:22.092Z,77.04
2023-01-28T01:13:55.457Z,77.04
2023-01-28T01:16:27.462Z,76.25
2023-01-28T01:18:56.495Z,78.19
2023-01-28T01:21:27.405Z,76.64
2023-01-28T01:23:56.338Z,76.01
2023-01-28T01:26:27.358Z,76.92
2023-01-28T01:28:55.434Z,76.39
2023-01-28T01:31:24.180Z,78.20
2023-01-28T01:33:53.372Z,76.21
2023-01-28T01:36:22.100Z,76.45
2023-01-28T01:38:54.501Z,76.37
2023-01-28T01:41:30.035Z,75.44
2023-01-28T01:44:00.275Z,77.08
2023-01-28T01:46:37.226Z,75.32
2023-01-28T01:49:14.594Z,75.94
2023-01-28T01:51:43.745Z,75.17
2023-01-28T01:54:11.950Z,76.03
2023-01-28T01:56:45.905Z,77.24
2023-01-28T01:59:17.923Z,76.65
2023-01-28T02:01:46.690Z,75.09
2023-01-28T02:04:20.998Z,74.62
2023-01-28T02:06:49.848Z,75.58
2023-01-28T02:09:30.390Z,75.52
2023-01-28T02:12:04.036Z,75.98
2023-01-28T02:14:36.212Z,75.81
2023-01-28T02:17:05.340Z,73.96
2023-01-28T02:19:39.142Z,74.60
2023-01-28T02:22:40.135Z,75.65
2023-01-28T02:25:35.111Z,75.31
2023-01-28T02:28:20.094Z,74.11
2023-01-28T02:30:57.343Z,74.49
2023-01-28T02:33:32.636Z,74.16
2023-01-28T02:36:11.080Z,73.68
2023-01-28T02:38:45.175Z,73.74
2023-01-28T02:41:22.323Z,74.21
2023-01-28T02:43:51.925Z,73.76
2023-01-28T02:46:41.478Z,73.52
2023-01-28T02:49:12.729Z,75.02
2023-01-28T02:51:57.431Z,74.05
2023-01-28T02:54:37.069Z,74.71
2023-01-28T02:57:20.116Z,75.55
2023-01-28T02:59:58.803Z,75.57
2023-01-28T03:02:32.219Z,74.95
2023-01-28T03:05:10.619Z,76.92
2023-01-28T03:07:42.535Z,77.44
2023-01-28T03:10:16.387Z,76.43
2023-01-28T03:13:03.304Z,76.04
2023-01-28T03:15:56.296Z,74.34
2023-01-28T03:18:44.800Z,75.61
2023-01-28T03:21:33.858Z,76.43
2023-01-28T03:24:24.568Z,74.26
2023-01-28T03:27:16.577Z,73.85
2023-01-28T03:30:06.172Z,74.50
2023-01-28T03:32:54.267Z,74.14
2023-01-28T03:35:42.767Z,74.00
2023-01-28T03:38:21.074Z,76.49
2023-01-28T03:40:54.279Z,76.22
2023-01-28T03:43:22.936Z,75.38
2023-01-28T03:45:52.524Z,74.77
2023-01-28T03:48:25.238Z,75.18
2023-01-28T03:50:54.511Z,74.69
2023-01-28T03:53:25.464Z,74.84
2023-01-28T03:55:54.888Z,75.19
2023-01-28T03:58:27.253Z,74.45
2023-01-28T04:00:57.921Z,75.66
2023-01-28T04:03:27.460Z,75.93
2023-01-28T04:06:00.788Z,76.88
2023-01-28T04:08:53.043Z,75.51
2023-01-28T04:11:47.418Z,76.45
2023-01-28T04:14:21.739Z,76.58
2023-01-28T04:16:54.953Z,75.40
2023-01-28T04:19:25.772Z,75.80
2023-01-28T04:21:55.330Z,74.17
2023-01-28T04:24:24.440Z,74.86
2023-01-28T04:26:54.854Z,76.50
2023-01-28T04:29:27.691Z,75.62
2023-01-28T04:32:02.307Z,75.69
2023-01-28T04:34:42.103Z,76.17
2023-01-28T04:37:33.052Z,76.13
2023-01-28T04:40:14.503Z,74.90
2023-01-28T04:42:44.542Z,74.59
2023-01-28T04:45:35.682Z,75.55
2023-01-28T04:48:24.437Z,74.27
2023-01-28T04:51:07.878Z,74.33
2023-01-28T04:53:56.258Z,75.58
2023-01-28T04:56:27.431Z,74.31
2023-01-28T04:58:55.381Z,74.29
2023-01-28T05:01:27.945Z,74.55
2023-01-28T05:03:56.786Z,74.40
2023-01-28T05:06:29.041Z,73.88
2023-01-28T05:09:04.000Z,73.93
2023-01-28T05:11:31.992Z,75.42
2023-01-28T05:14:04.390Z,75.28
2023-01-28T05:16:55.661Z,74.85
2023-01-28T05:19:23.759Z,74.19
2023-01-28T05:21:53.414Z,75.86
2023-01-28T05:24:37.806Z,75.51
2023-01-28T05:27:07.530Z,76.47
2023-01-28T05:29:37.240Z,76.65
2023-01-28T05:32:06.029Z,75.66
2023-01-28T05:34:36.718Z,75.46
2023-01-28T05:37:12.360Z,77.08
2023-01-28T05:39:40.624Z,75.84
2023-01-28T05:42:09.375Z,74.51
2023-01-28T05:44:42.730Z,74.76
2023-01-28T05:47:22.857Z,75.65
2023-01-28T05:49:54.181Z,75.02
2023-01-28T05:52:42.275Z,74.63
2023-01-28T05:55:20.705Z,74.56
2023-01-28T05:57:52.031Z,75.41
2023-01-28T06:00:23.223Z,75.20
2023-01-28T06:02:52.512Z,74.81
2023-01-28T06:05:21.778Z,75.49
2023-01-28T06:07:54.790Z,77.88
2023-01-28T06:10:22.790Z,76.07
2023-01-28T06:12:52.684Z,75.66
2023-01-28T06:15:39.492Z,75.45
2023-01-28T06:18:25.784Z,74.73
2023-01-28T06:20:55.088Z,75.13
2023-01-28T06:23:24.438Z,75.35
2023-01-28T06:25:54.956Z,76.59
2023-01-28T06:28:23.417Z,76.82
2023-01-28T06:30:56.765Z,74.74
2023-01-28T06:33:24.817Z,76.32
2023-01-28T06:35:52.895Z,76.44
2023-01-28T06:38:21.056Z,72.35
2023-01-28T06:40:55.794Z,74.51
2023-01-28T06:43:29.017Z,76.40
2023-01-28T06:45:57.370Z,74.64
2023-01-28T06:48:25.861Z,75.32
2023-01-28T06:50:54.103Z,73.70
2023-01-28T06:53:22.860Z,72.32
2023-01-28T06:55:50.847Z,74.95
2023-01-28T06:58:20.109Z,73.96
2023-01-28T07:00:50.044Z,75.38
2023-01-28T07:03:18.084Z,75.83
2023-01-28T07:05:46.098Z,74.69
2023-01-28T07:08:14.066Z,74.09
2023-01-28T07:10:42.097Z,73.99
2023-01-28T07:13:12.830Z,75.09
2023-01-28T07:15:42.583Z,74.65
2023-01-28T07:18:10.694Z,73.37
2023-01-28T07:20:38.668Z,73.56
2023-01-28T07:23:06.675Z,75.05
2023-01-28T07:25:36.847Z,72.95
2023-01-28T07:28:06.286Z,73.47
2023-01-28T07:30:34.375Z,74.60
2023-01-28T07:33:04.000Z,74.68
2023-01-28T07:35:33.152Z,73.94
2023-01-28T07:38:02.110Z,74.61
2023-01-28T07:40:30.422Z,76.15
2023-01-28T07:42:58.466Z,76.33
2023-01-28T07:45:28.758Z,74.15
2023-01-28T07:47:58.552Z,74.16
2023-01-28T07:50:29.370Z,75.03
2023-01-28T07:52:57.475Z,75.76
2023-01-28T07:55:27.379Z,73.67
2023-01-28T07:57:57.851Z,73.29
2023-01-28T08:00:27.406Z,73.01
2023-01-28T08:02:57.944Z,73.60
2023-01-28T08:05:30.255Z,74.26
2023-01-28T08:07:58.799Z,72.92
2023-01-28T08:10:28.328Z,73.58
2023-01-28T08:12:58.759Z,72.41
2023-01-28T08:15:27.252Z,74.88
2023-01-28T08:17:56.123Z,71.99
2023-01-28T08:20:24.395Z,72.46
2023-01-28T08:22:53.708Z,72.56
2023-01-28T08:25:22.181Z,73.36
2023-01-28T08:27:53.063Z,72.69
2023-01-28T08:30:21.235Z,73.06
2023-01-28T08:32:49.236Z,73.48
2023-01-28T08:35:17.258Z,72.68
2023-01-28T08:37:45.203Z,71.36
2023-01-28T08:40:16.692Z,73.11
2023-01-28T08:42:48.357Z,71.63
2023-01-28T08:45:16.560Z,72.76
2023-01-28T08:47:51.455Z,71.68
2023-01-28T08:50:21.093Z,70.75
2023-01-28T08:52:50.966Z,70.98
2023-01-28T08:55:20.655Z,71.13
2023-01-28T08:57:48.605Z,70.65
2023-01-28T09:00:17.341Z,68.48
2023-01-28T09:02:45.482Z,67.94
2023-01-28T09:05:13.504Z,67.54
2023-01-28T09:07:44.233Z,67.80
2023-01-28T09:10:13.121Z,67.64
2023-01-28T09:12:43.671Z,67.82
2023-01-28T09:15:15.795Z,67.85
2023-01-28T09:17:43.887Z,69.59
2023-01-28T09:20:13.963Z,70.19
2023-01-28T09:22:42.249Z,69.73
2023-01-28T09:25:10.692Z,69.72
2023-01-28T09:27:38.638Z,68.54
2023-01-28T09:30:10.386Z,69.02
2023-01-28T09:32:38.531Z,69.91
2023-01-28T09:35:07.236Z,70.65
2023-01-28T09:37:35.238Z,71.73
2023-01-28T09:40:03.267Z,74.03
2023-01-28T09:42:44.238Z,71.81
2023-01-28T09:45:18.697Z,72.32
2023-01-28T09:47:51.716Z,72.07
2023-01-28T09:50:24.837Z,70.66
2023-01-28T09:52:57.971Z,70.93
2023-01-28T09:55:33.014Z,71.51
2023-01-28T09:58:01.094Z,72.79
2023-01-28T10:00:39.159Z,71.82
2023-01-28T10:03:28.058Z,72.41
2023-01-28T10:06:07.485Z,71.48
2023-01-28T10:08:56.374Z,71.48
2023-01-28T10:11:37.739Z,71.05
2023-01-28T10:14:14.769Z,72.03
2023-01-28T10:16:51.007Z,70.30
2023-01-28T10:19:25.047Z,70.76
2023-01-28T10:21:58.491Z,71.33
2023-01-28T10:24:32.815Z,71.72
2023-01-28T10:27:04.958Z,70.29
2023-01-28T10:29:36.308Z,70.53
2023-01-28T10:32:24.284Z,69.92
2023-01-28T10:34:53.956Z,71.63
2023-01-28T10:37:22.253Z,69.00
2023-01-28T10:39:51.931Z,69.21
2023-01-28T10:42:27.885Z,69.18
2023-01-28T10:45:00.753Z,69.69
2023-01-28T10:47:34.790Z,67.93
2023-01-28T10:50:05.871Z,68.94
2023-01-28T10:52:33.781Z,67.95
2023-01-28T10:55:02.905Z,67.01
2023-01-28T10:57:31.170Z,66.76
2023-01-28T10:59:59.666Z,68.53
2023-01-28T11:02:37.035Z,67.60
2023-01-28T11:05:15.460Z,67.93
2023-01-28T11:07:46.233Z,68.53
2023-01-28T11:10:27.246Z,68.09
2023-01-28T11:12:59.279Z,67.09
2023-01-28T11:15:27.944Z,67.65
2023-01-28T11:18:00.347Z,66.95
2023-01-28T11:20:30.416Z,65.61
2023-01-28T11:22:59.145Z,66.14
2023-01-28T11:25:32.045Z,67.82
2023-01-28T11:28:01.820Z,65.79
2023-01-28T11:30:33.732Z,66.14
2023-01-28T11:33:17.770Z,65.41
2023-01-28T11:35:54.652Z,65.23
2023-01-28T11:38:24.813Z,66.57
2023-01-28T11:40:53.913Z,63.70
2023-01-28T11:43:24.345Z,64.76
2023-01-28T11:46:04.837Z,64.85
2023-01-28T11:48:46.971Z,67.36
2023-01-28T11:51:29.379Z,65.84
2023-01-28T11:54:08.102Z,65.66
2023-01-28T11:56:53.639Z,65.16
2023-01-28T11:59:41.635Z,62.49
2023-01-28T12:02:24.559Z,63.35
2023-01-28T12:05:15.908Z,63.60
2023-01-28T12:07:55.508Z,65.20
2023-01-28T12:10:30.802Z,64.65
2023-01-28T12:13:22.473Z,63.88
2023-01-28T12:16:29.080Z,62.87
2023-01-28T12:19:20.311Z,63.34
2023-01-28T12:22:11.257Z,63.25
2023-01-28T12:24:55.891Z,60.06
2023-01-28T12:27:40.725Z,51.42
2023-01-28T12:30:20.392Z,44.83
2023-01-28T12:33:05.749Z,41.27
2023-01-28T12:35:51.078Z,43.62
2023-01-28T12:38:29.201Z,45.90
2023-01-28T12:41:04.655Z,44.88
2023-01-28T12:43:46.677Z,49.16
2023-01-28T12:46:26.127Z,53.76
2023-01-28T12:49:01.136Z,53.27
2023-01-28T12:51:37.136Z,50.37
2023-01-28T12:54:13.435Z,56.53
2023-01-28T12:56:45.568Z,57.46
2023-01-28T12:59:17.863Z,59.08
2023-01-28T13:01:52.577Z,62.23
2023-01-28T13:04:30.504Z,60.94
2023-01-28T13:07:03.026Z,59.34
2023-01-28T13:09:38.004Z,59.81
2023-01-28T13:12:07.415Z,60.10
2023-01-28T13:14:36.192Z,59.19
2023-01-28T13:17:26.666Z,62.04
2023-01-28T13:19:54.673Z,61.98
2023-01-28T13:22:31.854Z,57.37
2023-01-28T13:25:23.116Z,56.61
2023-01-28T13:27:59.327Z,51.80
2023-01-28T13:30:30.178Z,55.72
2023-01-28T13:33:25.285Z,55.21
2023-01-28T13:35:56.422Z,54.84
2023-01-28T13:38:25.218Z,54.07
2023-01-28T13:41:03.504Z,51.42
2023-01-28T13:43:42.460Z,51.51
2023-01-28T13:46:12.306Z,52.21
2023-01-28T13:48:49.403Z,53.94
2023-01-28T13:51:21.646Z,56.24
2023-01-28T13:53:57.038Z,56.40
2023-01-28T13:56:29.719Z,57.37
2023-01-28T13:59:28.505Z,55.94
2023-01-28T14:02:33.456Z,57.94
2023-01-28T14:05:47.582Z,58.27
2023-01-28T14:08:44.655Z,60.46
2023-01-28T14:11:26.367Z,60.46
2023-01-28T14:14:29.739Z,60.17
2023-01-28T14:17:03.557Z,59.73
2023-01-28T14:19:34.871Z,60.97
2023-01-28T14:22:08.320Z,61.97
2023-01-28T14:24:38.229Z,62.45
2023-01-28T14:27:12.061Z,62.86
2023-01-28T14:29:51.271Z,58.40
2023-01-28T14:32:27.010Z,55.23
2023-01-28T14:34:56.525Z,55.09
2023-01-28T14:37:32.965Z,54.37
2023-01-28T14:40:03.770Z,56.04
2023-01-28T14:42:33.842Z,58.59
2023-01-28T14:45:14.701Z,60.43
2023-01-28T14:48:04.402Z,63.29
2023-01-28T14:50:47.869Z,64.10
2023-01-28T14:53:31.644Z,65.36
2023-01-28T14:56:10.730Z,65.39
2023-01-28T14:58:43.171Z,66.00
2023-01-28T15:01:21.938Z,66.56
2023-01-28T15:03:51.506Z,67.18
2023-01-28T15:06:24.034Z,67.47
2023-01-28T15:08:52.360Z,67.89
2023-01-28T15:11:24.153Z,67.60
2023-01-28T15:13:58.300Z,69.03
2023-01-28T15:16:28.991Z,67.55
2023-01-28T15:19:01.298Z,69.25
2023-01-28T15:21:31.234Z,69.79
2023-01-28T15:24:01.253Z,70.53
2023-01-28T15:26:32.067Z,70.50
2023-01-28T15:29:02.472Z,70.54
2023-01-28T15:31:32.681Z,72.73
2023-01-28T15:34:04.347Z,72.36
2023-01-28T15:36:32.954Z,73.58
2023-01-28T15:39:01.114Z,74.12
2023-01-28T15:41:33.492Z,74.04
2023-01-28T15:44:01.757Z,75.47
2023-01-28T15:46:29.655Z,76.59
2023-01-28T15:49:03.953Z,76.05
2023-01-28T15:51:33.846Z,75.42
2023-01-28T15:54:05.121Z,76.00
2023-01-28T15:56:33.604Z,75.89
2023-01-28T15:59:20.800Z,77.76
2023-01-28T16:01:48.846Z,79.56
2023-01-28T16:04:30.210Z,80.18
2023-01-28T16:07:05.472Z,80.65
2023-01-28T16:09:35.583Z,80.55
2023-01-28T16:12:05.524Z,80.28
2023-01-28T16:14:41.373Z,82.62
2023-01-28T16:17:10.053Z,81.43
2023-01-28T16:19:42.357Z,82.12
2023-01-28T16:22:20.543Z,82.55
2023-01-28T16:24:53.378Z,82.28
2023-01-28T16:27:23.615Z,84.26
2023-01-28T16:29:51.532Z,83.31
2023-01-28T16:32:31.075Z,82.93
2023-01-28T16:35:00.696Z,85.61
2023-01-28T16:37:28.673Z,84.59
2023-01-28T16:40:00.355Z,83.01
2023-01-28T16:42:30.205Z,83.34
2023-01-28T16:44:58.553Z,83.29
2023-01-28T16:47:26.564Z,83.22
2023-01-28T16:49:54.501Z,83.36
2023-01-28T16:52:23.812Z,84.86
2023-01-28T16:54:51.760Z,84.98
2023-01-28T16:57:21.585Z,83.63
2023-01-28T16:59:49.689Z,83.47
2023-01-28T17:02:18.550Z,85.65
2023-01-28T17:04:46.430Z,84.90
2023-01-28T17:07:14.369Z,85.55
2023-01-28T17:09:43.690Z,84.41
2023-01-28T17:12:11.625Z,84.63
2023-01-28T17:14:39.933Z,84.37
2023-01-28T17:17:07.980Z,84.14
2023-01-28T17:19:35.871Z,85.06
2023-01-28T17:22:03.785Z,86.73
2023-01-28T17:24:31.788Z,85.16
2023-01-28T17:27:02.324Z,86.37
2023-01-28T17:29:30.245Z,86.27
2023-01-28T17:31:59.088Z,85.88
2023-01-28T17:34:27.168Z,86.36
2023-01-28T17:36:55.188Z,86.54
2023-01-28T17:39:23.264Z,87.01
2023-01-28T17:41:52.113Z,86.16
2023-01-28T17:44:21.957Z,86.41
2023-01-28T17:46:50.012Z,87.35
2023-01-28T17:49:18.209Z,87.71
2023-01-28T17:51:46.115Z,87.36
2023-01-28T17:54:17.016Z,87.60
2023-01-28T17:56:44.950Z,87.62
2023-01-28T17:59:16.829Z,87.76
2023-01-28T18:01:48.001Z,88.55
2023-01-28T18:04:15.962Z,86.86
2023-01-28T18:06:44.733Z,87.53
2023-01-28T18:09:13.148Z,87.54
2023-01-28T18:11:42.229Z,88.09
2023-01-28T18:14:10.230Z,88.49
2023-01-28T18:16:38.311Z,87.50
2023-01-28T18:19:09.553Z,90.26
2023-01-28T18:21:56.948Z,89.70
2023-01-28T18:24:27.179Z,90.46
2023-01-28T18:26:58.264Z,89.27
2023-01-28T18:29:26.888Z,90.22
2023-01-28T18:31:56.602Z,89.33
2023-01-28T18:34:28.978Z,89.05
2023-01-28T18:36:58.277Z,90.33
2023-01-28T18:39:30.176Z,90.19
2023-01-28T18:41:58.964Z,88.73
2023-01-28T18:44:30.050Z,88.53
2023-01-28T18:46:58.585Z,87.62
2023-01-28T18:49:27.965Z,88.64
2023-01-28T18:51:55.878Z,88.29
2023-01-28T18:54:24.760Z,88.37
2023-01-28T18:56:52.675Z,88.13
2023-01-28T18:59:21.228Z,88.01
2023-01-28T19:01:49.928Z,88.49
2023-01-28T19:04:20.822Z,87.65
2023-01-28T19:06:51.334Z,87.16
2023-01-28T19:09:19.403Z,87.44
2023-01-28T19:11:48.321Z,87.53
2023-01-28T19:14:16.769Z,88.97
2023-01-28T19:16:45.428Z,89.46
2023-01-28T19:19:13.602Z,88.26
2023-01-28T19:21:41.637Z,88.61
2023-01-28T19:24:13.979Z,88.39
2023-01-28T19:26:45.633Z,89.19
2023-01-28T19:29:16.149Z,90.72
2023-01-28T19:31:48.433Z,89.35
2023-01-28T19:34:16.954Z,88.79
2023-01-28T19:36:44.961Z,87.94
2023-01-28T19:39:14.813Z,87.68
2023-01-28T19:41:42.781Z,89.00
2023-01-28T19:44:10.825Z,88.62
2023-01-28T19:46:41.109Z,88.38
2023-01-28T19:49:10.667Z,88.20
2023-01-28T19:51:38.623Z,88.62
2023-01-28T19:54:06.636Z,88.17
2023-01-28T19:56:37.563Z,87.57
2023-01-28T19:59:05.631Z,87.10
2023-01-28T20:01:33.672Z,87.43
2023-01-28T20:04:05.331Z,87.61
2023-01-28T20:06:33.989Z,87.11
2023-01-28T20:09:03.446Z,88.43
2023-01-28T20:11:31.439Z,88.27
2023-01-28T20:14:00.731Z,88.19
2023-01-28T20:16:30.893Z,89.27
2023-01-28T20:19:00.817Z,88.97
2023-01-28T20:21:30.022Z,87.59
2023-01-28T20:23:59.743Z,88.47
2023-01-28T20:26:31.175Z,88.56
2023-01-28T20:29:02.922Z,87.47
2023-01-28T20:31:33.985Z,87.06
2023-01-28T20:34:02.337Z,88.25
2023-01-28T20:36:30.466Z,86.32
2023-01-28T20:38:58.669Z,87.19
2023-01-28T20:41:27.902Z,88.78
2023-01-28T20:43:56.966Z,89.72
2023-01-28T20:46:30.200Z,91.50
2023-01-28T20:49:02.878Z,92.01
2023-01-28T20:51:34.631Z,91.80
2023-01-28T20:54:04.806Z,90.77
2023-01-28T20:56:32.995Z,92.71
2023-01-28T20:59:03.016Z,92.64
2023-01-28T21:01:34.768Z,92.82
2023-01-28T21:04:03.195Z,92.51
2023-01-28T21:06:31.155Z,90.85
2023-01-28T21:08:59.625Z,89.23
2023-01-28T21:11:28.056Z,89.05
2023-01-28T21:13:56.170Z,90.01
2023-01-28T21:16:25.016Z,89.07
2023-01-28T21:18:54.328Z,89.58
2023-01-28T21:21:24.163Z,88.86
2023-01-28T21:23:54.600Z,88.70
2023-01-28T21:26:22.686Z,87.48
2023-01-28T21:28:50.606Z,87.66
2023-01-28T21:31:21.153Z,88.37
2023-01-28T21:33:50.038Z,88.55
2023-01-28T21:36:20.513Z,88.44
2023-01-28T21:38:52.894Z,88.13
2023-01-28T21:41:20.942Z,87.88
2023-01-28T21:43:52.021Z,87.46
2023-01-28T21:46:20.010Z,87.80
2023-01-28T21:48:48.105Z,86.80
2023-01-28T21:51:33.818Z,87.79
2023-01-28T21:54:03.889Z,88.53
2023-01-28T21:56:32.057Z,87.12
2023-01-28T21:59:17.536Z,87.65
2023-01-28T22:01:45.683Z,86.05
2023-01-28T22:04:14.422Z,86.37
2023-01-28T22:06:43.358Z,87.14
2023-01-28T22:09:13.711Z,87.53
2023-01-28T22:11:42.842Z,87.54
2023-01-28T22:14:11.514Z,85.84
2023-01-28T22:16:40.099Z,86.98
2023-01-28T22:19:08.222Z,87.02
2023-01-28T22:21:40.994Z,88.57
2023-01-28T22:24:13.630Z,88.43
2023-01-28T22:26:42.952Z,89.10
2023-01-28T22:29:12.145Z,89.15
2023-01-28T22:31:43.166Z,88.75
2023-01-28T22:34:11.242Z,87.00
2023-01-28T22:36:40.672Z,86.89
2023-01-28T22:39:12.376Z,87.57
2023-01-28T22:41:42.301Z,87.06
2023-01-28T22:44:10.833Z,87.15
2023-01-28T22:46:39.075Z,86.84
2023-01-28T22:49:07.266Z,87.23
2023-01-28T22:51:36.743Z,87.08
2023-01-28T22:54:06.446Z,87.30
2023-01-28T22:56:34.420Z,87.44
2023-01-28T22:59:04.907Z,86.48
2023-01-28T23:01:33.539Z,86.94
2023-01-28T23:04:01.556Z,86.82
2023-01-28T23:06:31.125Z,86.84
2023-01-28T23:08:59.094Z,86.03
2023-01-28T23:11:27.746Z,86.79
2023-01-28T23:14:15.424Z,87.20
2023-01-28T23:17:05.476Z,86.49
2023-01-28T23:19:51.545Z,86.93
2023-01-28T23:22:41.353Z,86.76
2023-01-28T23:25:10.156Z,87.71
2023-01-28T23:27:40.469Z,87.55
2023-01-28T23:30:10.535Z,87.15
2023-01-28T23:32:43.524Z,87.76
2023-01-28T23:35:12.461Z,88.07
2023-01-28T23:37:41.472Z,87.03
2023-01-28T23:40:10.438Z,87.45
2023-01-28T23:42:38.494Z,86.73
2023-01-28T23:45:07.612Z,86.81
2023-01-28T23:47:37.965Z,87.72
2023-01-28T23:50:08.456Z,87.69
2023-01-28T23:52:36.653Z,86.72
2023-01-28T23:55:05.384Z,87.91
2023-01-28T23:57:33.362Z,88.99
